Time;durP1;ratioP1;P1;durP2;ratioP2;P2;SDS_P1;SDS_P2;PMS_P1;PMS_P2;Temp;Humidity;BMP_temperature;BMP_pressure;BME280_temperature;BME280_humidity;BME280_pressure;Samples;Min_cycle;Max_cycle;Signal;HPM_P1;HPM_P2
2023/03/07 00:00:37;;;;;;;34.45;19.10;;;6.60;99.90;;;;;;4985383;28;20039;-73
2023/03/07 00:03:03;;;;;;;41.15;19.02;;;6.60;99.90;;;;;;4988775;28;20045;-73
2023/03/07 00:05:29;;;;;;;34.97;19.15;;;6.70;99.90;;;;;;4988880;28;20121;-73
2023/03/07 00:07:54;;;;;;;33.20;17.42;;;6.70;99.90;;;;;;4988178;28;20457;-73
2023/03/07 00:10:20;;;;;;;33.88;19.73;;;6.60;99.90;;;;;;4990944;28;20088;-80
2023/03/07 00:12:46;;;;;;;38.05;19.90;;;6.50;99.90;;;;;;4990556;28;20477;-74
2023/03/07 00:15:11;;;;;;;36.75;18.35;;;6.40;99.90;;;;;;4986104;28;20058;-73
2023/03/07 00:17:38;;;;;;;31.40;18.52;;;6.40;99.90;;;;;;4990183;28;20176;-74
2023/03/07 00:20:06;;;;;;;32.72;18.05;;;6.40;99.90;;;;;;4989997;28;20053;-73
2023/03/07 00:22:32;;;;;;;37.78;18.90;;;6.40;99.90;;;;;;4993080;28;20497;-74
2023/03/07 00:24:58;;;;;;;34.63;18.40;;;6.40;99.90;;;;;;4993488;28;20548;-73
2023/03/07 00:27:24;;;;;;;37.35;19.73;;;6.40;99.90;;;;;;4989981;28;20173;-73
2023/03/07 00:29:49;;;;;;;31.90;19.42;;;6.30;99.90;;;;;;4993316;28;20053;-74
2023/03/07 00:32:16;;;;;;;32.17;17.88;;;6.20;99.90;;;;;;4993603;28;20493;-73
2023/03/07 00:34:41;;;;;;;32.15;18.83;;;6.10;99.90;;;;;;4993527;28;20026;-82
2023/03/07 00:37:07;;;;;;;37.33;19.23;;;6.10;99.90;;;;;;4991124;28;20034;-73
2023/03/07 00:39:33;;;;;;;40.28;19.08;;;6.00;99.90;;;;;;4994268;28;20054;-73
2023/03/07 00:41:59;;;;;;;34.75;19.98;;;6.10;99.90;;;;;;4992756;28;20030;-74
2023/03/07 00:44:26;;;;;;;37.13;19.48;;;6.10;99.90;;;;;;4992807;28;20042;-74
2023/03/07 00:46:52;;;;;;;32.28;18.88;;;6.10;99.90;;;;;;4991990;28;20026;-76
2023/03/07 00:49:19;;;;;;;37.17;18.58;;;6.10;99.90;;;;;;4994025;28;20117;-75
2023/03/07 00:51:45;;;;;;;37.83;19.27;;;6.10;99.90;;;;;;4990081;28;20062;-75
2023/03/07 00:54:11;;;;;;;35.20;17.25;;;6.10;99.90;;;;;;4994245;28;20189;-75
2023/03/07 00:56:37;;;;;;;31.25;16.98;;;6.10;99.90;;;;;;4990538;28;20041;-74
2023/03/07 00:59:02;;;;;;;30.98;18.30;;;6.00;99.90;;;;;;4992824;28;20054;-75
2023/03/07 01:01:28;;;;;;;36.47;19.73;;;6.10;99.90;;;;;;4993639;28;20117;-75
2023/03/07 01:03:55;;;;;;;34.75;17.88;;;6.00;99.90;;;;;;4994046;28;20484;-75
2023/03/07 01:06:31;;;;;;;37.35;20.42;;;5.90;99.90;;;;;;4991059;28;20115;-75
2023/03/07 01:09:07;;;;;;;39.03;20.10;;;5.90;99.90;;;;;;4993792;28;20030;-75
2023/03/07 01:11:34;;;;;;;36.75;17.98;;;6.00;99.90;;;;;;4992148;28;20035;-75
2023/03/07 01:14:03;;;;;;;37.50;19.15;;;6.00;99.90;;;;;;4981976;28;20135;-77
2023/03/07 01:16:31;;;;;;;36.10;19.17;;;6.00;99.90;;;;;;4986707;28;20455;-77
2023/03/07 01:19:00;;;;;;;36.92;19.55;;;6.10;99.90;;;;;;4991481;28;20690;-76
2023/03/07 01:21:28;;;;;;;34.72;19.60;;;6.20;99.90;;;;;;4993206;28;20031;-75
2023/03/07 01:23:53;;;;;;;36.70;20.52;;;6.30;99.90;;;;;;4992997;28;20093;-75
2023/03/07 01:26:22;;;;;;;36.58;19.35;;;6.30;99.90;;;;;;4992395;28;20069;-79
2023/03/07 01:28:53;;;;;;;34.42;19.80;;;6.30;99.90;;;;;;4984314;28;20115;-75
2023/03/07 01:31:18;;;;;;;34.90;20.00;;;6.30;99.90;;;;;;4986838;28;20041;-75
2023/03/07 01:33:47;;;;;;;31.98;19.63;;;6.40;99.90;;;;;;4993197;28;20030;-75
2023/03/07 01:36:17;;;;;;;39.55;19.88;;;6.40;99.90;;;;;;4995151;28;20064;-75
2023/03/07 01:38:43;;;;;;;35.67;18.88;;;6.40;99.90;;;;;;4993510;28;20054;-75
2023/03/07 01:41:09;;;;;;;36.33;19.45;;;6.40;99.90;;;;;;4994367;28;20057;-75
2023/03/07 01:43:35;;;;;;;37.50;20.80;;;6.40;99.90;;;;;;4994152;28;20031;-75
2023/03/07 01:46:16;;;;;;;38.38;20.25;;;6.40;99.90;;;;;;4994093;28;20464;-75
2023/03/07 01:48:49;;;;;;;37.25;19.85;;;6.50;99.90;;;;;;4993642;28;20085;-75
2023/03/07 01:51:16;;;;;;;32.63;20.52;;;6.50;99.90;;;;;;4994916;28;20385;-75
2023/03/07 01:53:42;;;;;;;35.88;20.45;;;6.50;99.90;;;;;;4993746;28;20027;-75
2023/03/07 01:56:09;;;;;;;36.22;19.60;;;6.50;99.90;;;;;;4992014;28;20030;-75
2023/03/07 01:58:37;;;;;;;33.58;19.58;;;6.50;99.90;;;;;;4993185;28;20405;-75
2023/03/07 02:01:05;;;;;;;31.20;19.45;;;6.50;99.90;;;;;;4992111;28;20034;-74
2023/03/07 02:03:50;;;;;;;36.88;21.75;;;6.50;99.90;;;;;;4994453;28;20030;-75
2023/03/07 02:06:17;;;;;;;34.65;19.08;;;6.50;99.90;;;;;;4992233;28;20121;-75
2023/03/07 02:08:44;;;;;;;34.17;19.25;;;6.50;99.90;;;;;;4993659;28;20456;-75
2023/03/07 02:11:11;;;;;;;35.35;19.60;;;6.50;99.90;;;;;;4993552;28;20039;-75
2023/03/07 02:13:37;;;;;;;34.83;19.77;;;6.40;99.90;;;;;;4994222;28;20038;-75
2023/03/07 02:16:04;;;;;;;34.95;20.27;;;6.50;99.90;;;;;;4993567;28;20034;-75
2023/03/07 02:18:34;;;;;;;34.42;19.80;;;6.50;99.90;;;;;;5005981;28;20109;-76
2023/03/07 02:21:11;;;;;;;31.58;18.88;;;6.40;99.90;;;;;;4985497;28;20034;-75
2023/03/07 02:23:50;;;;;;;37.22;20.95;;;6.40;99.90;;;;;;4983654;28;20121;-75
2023/03/07 02:26:31;;;;;;;34.72;20.50;;;6.50;99.90;;;;;;4992941;28;20023;-75
2023/03/07 02:28:58;;;;;;;35.85;20.75;;;6.40;99.90;;;;;;4993402;28;20057;-76
2023/03/07 02:31:25;;;;;;;36.90;19.65;;;6.60;99.90;;;;;;4993164;28;20531;-75
2023/03/07 02:33:50;;;;;;;41.35;21.80;;;6.70;99.90;;;;;;4992294;28;20114;-75
2023/03/07 02:36:20;;;;;;;33.35;19.90;;;6.70;99.90;;;;;;4991923;28;20117;-75
2023/03/07 02:38:47;;;;;;;39.45;20.70;;;6.70;99.90;;;;;;4992545;28;20058;-75
2023/03/07 02:41:15;;;;;;;37.88;22.95;;;6.50;99.90;;;;;;4994003;28;20034;-75
2023/03/07 02:43:41;;;;;;;33.83;21.20;;;6.40;99.90;;;;;;4991231;28;20033;-75
2023/03/07 02:46:07;;;;;;;39.00;22.65;;;6.30;99.90;;;;;;4994040;28;20038;-75
2023/03/07 02:48:33;;;;;;;37.42;19.30;;;6.30;99.90;;;;;;4991431;28;20036;-75
2023/03/07 02:50:58;;;;;;;44.33;20.92;;;6.30;99.90;;;;;;4992386;28;20057;-75
2023/03/07 02:53:24;;;;;;;39.10;20.50;;;6.30;99.90;;;;;;4993880;28;20069;-75
2023/03/07 02:55:50;;;;;;;38.15;22.30;;;6.40;99.90;;;;;;4993373;28;20523;-75
2023/03/07 02:58:16;;;;;;;42.35;22.80;;;6.40;99.90;;;;;;4981990;28;20043;-75
2023/03/07 03:00:41;;;;;;;33.08;19.35;;;6.40;99.90;;;;;;4993430;28;20481;-75
2023/03/07 03:03:07;;;;;;;37.45;20.85;;;6.30;99.90;;;;;;4993676;28;20053;-76
2023/03/07 03:05:33;;;;;;;36.75;21.48;;;6.30;99.90;;;;;;4991189;28;20026;-75
2023/03/07 03:07:58;;;;;;;42.15;21.77;;;6.30;99.90;;;;;;4989952;28;20033;-75
2023/03/07 03:10:24;;;;;;;38.90;22.90;;;6.30;99.90;;;;;;4993459;28;20114;-75
2023/03/07 03:12:49;;;;;;;39.42;21.83;;;6.30;99.90;;;;;;4993522;28;20054;-75
2023/03/07 03:15:15;;;;;;;35.65;20.77;;;6.30;99.90;;;;;;4993368;28;20026;-75
2023/03/07 03:17:41;;;;;;;40.08;21.35;;;6.20;99.90;;;;;;4991525;28;20117;-75
2023/03/07 03:20:10;;;;;;;40.65;21.73;;;6.20;99.90;;;;;;4990917;28;20035;-75
2023/03/07 03:22:36;;;;;;;36.17;21.40;;;6.20;99.90;;;;;;4993276;28;20181;-75
2023/03/07 03:25:03;;;;;;;41.70;21.65;;;6.30;99.90;;;;;;4993540;28;20041;-75
2023/03/07 03:27:32;;;;;;;35.53;19.85;;;6.40;99.90;;;;;;4990245;28;20034;-75
2023/03/07 03:29:57;;;;;;;33.47;19.63;;;6.40;99.90;;;;;;4993021;28;20413;-75
2023/03/07 03:32:23;;;;;;;35.63;18.80;;;6.30;99.90;;;;;;4991961;28;20038;-75
2023/03/07 03:34:49;;;;;;;35.05;21.40;;;6.30;99.90;;;;;;4990943;28;20033;-73
2023/03/07 03:37:14;;;;;;;32.55;18.60;;;6.30;99.90;;;;;;4990634;28;20090;-73
2023/03/07 03:39:40;;;;;;;35.08;20.00;;;6.20;99.90;;;;;;4992445;28;20041;-73
2023/03/07 03:42:06;;;;;;;40.50;19.70;;;6.30;99.90;;;;;;4993431;28;20030;-73
2023/03/07 03:44:31;;;;;;;44.30;22.02;;;6.30;99.90;;;;;;4979721;28;20045;-74
2023/03/07 03:46:57;;;;;;;33.17;19.60;;;6.40;99.90;;;;;;4988716;28;20106;-73
2023/03/07 03:49:23;;;;;;;35.47;19.77;;;6.40;99.90;;;;;;4978951;28;20030;-73
2023/03/07 03:51:48;;;;;;;38.38;21.40;;;6.50;99.90;;;;;;4992945;28;20096;-73
2023/03/07 03:54:14;;;;;;;39.65;21.48;;;6.50;99.90;;;;;;4993156;28;20026;-73
2023/03/07 03:56:40;;;;;;;38.90;22.58;;;6.50;99.90;;;;;;4993614;28;20026;-73
2023/03/07 03:59:05;;;;;;;39.88;22.67;;;6.60;99.90;;;;;;4994493;28;20084;-73
2023/03/07 04:01:31;;;;;;;35.33;19.67;;;6.70;99.90;;;;;;4996850;28;20035;-73
2023/03/07 04:03:57;;;;;;;36.25;19.50;;;6.60;99.90;;;;;;4993310;28;20034;-74
2023/03/07 04:06:26;;;;;;;36.85;20.38;;;6.70;99.90;;;;;;4993853;28;20042;-74
2023/03/07 04:08:53;;;;;;;35.90;21.23;;;6.70;99.90;;;;;;4992515;28;20077;-74
2023/03/07 04:11:20;;;;;;;35.65;20.02;;;6.70;99.90;;;;;;5018535;28;20023;-80
2023/03/07 04:13:46;;;;;;;37.78;20.33;;;6.60;99.90;;;;;;5005005;28;20034;-73
2023/03/07 04:16:12;;;;;;;36.65;20.67;;;6.60;99.90;;;;;;4994900;28;20396;-76
2023/03/07 04:18:38;;;;;;;36.40;19.83;;;6.50;99.90;;;;;;4980871;28;20488;-73
2023/03/07 04:21:05;;;;;;;38.45;20.35;;;6.60;99.90;;;;;;4993285;28;20121;-74
2023/03/07 04:23:31;;;;;;;37.25;20.67;;;6.60;99.90;;;;;;4993240;28;20428;-73
2023/03/07 04:25:59;;;;;;;37.45;20.40;;;6.60;99.90;;;;;;4992572;28;20045;-73
2023/03/07 04:28:28;;;;;;;36.05;21.83;;;6.70;99.90;;;;;;4992720;28;20034;-73
2023/03/07 04:30:55;;;;;;;40.03;20.50;;;6.70;99.90;;;;;;4992906;28;20034;-74
2023/03/07 04:33:21;;;;;;;35.17;20.27;;;6.70;99.90;;;;;;4992685;28;20030;-73
2023/03/07 04:35:47;;;;;;;35.35;19.27;;;6.60;99.90;;;;;;4984995;28;20027;-73
2023/03/07 04:38:14;;;;;;;38.00;19.58;;;6.60;99.90;;;;;;4985428;28;20043;-74
2023/03/07 04:40:40;;;;;;;38.50;20.33;;;6.60;99.90;;;;;;4993985;28;20431;-74
2023/03/07 04:43:06;;;;;;;36.35;21.13;;;6.70;99.90;;;;;;4994238;28;20071;-73
2023/03/07 04:45:34;;;;;;;37.15;20.95;;;6.70;99.90;;;;;;4993246;28;20041;-73
2023/03/07 04:48:00;;;;;;;40.20;20.30;;;6.60;99.90;;;;;;4991181;28;20057;-73
2023/03/07 04:50:26;;;;;;;37.75;21.90;;;6.60;99.90;;;;;;4993424;28;20058;-74
2023/03/07 04:52:51;;;;;;;35.90;22.13;;;6.70;99.90;;;;;;4994041;28;20085;-73
2023/03/07 04:55:17;;;;;;;41.15;20.85;;;6.70;99.90;;;;;;4994061;28;20081;-74
2023/03/07 04:57:43;;;;;;;34.47;20.17;;;6.80;99.90;;;;;;4990260;28;20034;-74
2023/03/07 05:00:09;;;;;;;41.50;22.70;;;6.70;99.90;;;;;;4991778;28;20374;-74
2023/03/07 05:02:35;;;;;;;38.28;25.13;;;6.60;99.90;;;;;;4992590;28;20061;-78
2023/03/07 05:05:01;;;;;;;38.08;22.60;;;6.60;99.90;;;;;;4990528;28;20076;-73
2023/03/07 05:07:28;;;;;;;40.25;23.80;;;6.60;99.90;;;;;;4990061;28;20030;-77
2023/03/07 05:09:55;;;;;;;38.60;22.15;;;6.50;99.90;;;;;;4992868;28;20431;-73
2023/03/07 05:12:21;;;;;;;33.80;20.17;;;6.60;99.90;;;;;;4992868;28;20042;-76
2023/03/07 05:14:47;;;;;;;37.97;19.17;;;6.40;99.90;;;;;;4991480;28;20057;-73
2023/03/07 05:17:13;;;;;;;36.08;20.40;;;6.40;99.90;;;;;;4988660;28;20077;-74
2023/03/07 05:19:39;;;;;;;35.92;20.67;;;6.40;99.90;;;;;;4992197;28;20449;-73
2023/03/07 05:22:04;;;;;;;36.53;20.25;;;6.30;99.90;;;;;;4991924;28;20056;-74
2023/03/07 05:24:30;;;;;;;39.83;21.98;;;6.30;99.90;;;;;;4991470;28;20049;-74
2023/03/07 05:26:56;;;;;;;38.80;21.40;;;6.40;99.90;;;;;;4985580;28;20030;-73
2023/03/07 05:29:21;;;;;;;40.42;20.63;;;6.30;99.90;;;;;;4990664;28;20046;-74
2023/03/07 05:31:47;;;;;;;34.50;19.08;;;6.20;99.90;;;;;;4989935;28;20046;-73
2023/03/07 05:34:14;;;;;;;38.35;21.42;;;6.40;99.90;;;;;;4989341;28;20026;-74
2023/03/07 05:36:41;;;;;;;36.88;20.50;;;6.30;99.90;;;;;;4989509;28;20547;-73
2023/03/07 05:39:07;;;;;;;37.30;20.42;;;6.40;99.90;;;;;;4989617;28;20042;-77
2023/03/07 05:41:33;;;;;;;40.00;21.63;;;6.10;99.90;;;;;;4991749;28;20096;-77
2023/03/07 05:43:58;;;;;;;34.78;19.98;;;6.00;99.90;;;;;;4991676;28;20120;-76
2023/03/07 05:46:24;;;;;;;34.83;19.55;;;5.80;99.90;;;;;;4987696;28;20035;-73
2023/03/07 05:48:50;;;;;;;38.42;22.00;;;5.90;99.90;;;;;;4990561;28;20038;-73
2023/03/07 05:51:16;;;;;;;44.72;24.00;;;6.10;99.90;;;;;;4992151;28;20136;-74
2023/03/07 05:53:42;;;;;;;37.05;21.13;;;6.30;99.90;;;;;;4992188;28;20549;-73
2023/03/07 05:56:08;;;;;;;37.03;20.75;;;6.50;99.90;;;;;;4990897;28;20105;-74
2023/03/07 05:58:33;;;;;;;32.30;20.13;;;6.70;99.90;;;;;;4989390;28;20137;-74
2023/03/07 06:01:02;;;;;;;35.67;20.95;;;6.60;99.90;;;;;;4992112;28;20054;-73
2023/03/07 06:03:28;;;;;;;38.28;21.02;;;6.50;99.90;;;;;;4988904;28;20578;-78
2023/03/07 06:05:54;;;;;;;37.97;22.10;;;6.40;99.90;;;;;;4991866;28;20034;-73
2023/03/07 06:08:20;;;;;;;43.40;23.13;;;6.50;99.90;;;;;;4989956;28;20029;-75
2023/03/07 06:10:53;;;;;;;40.30;22.20;;;6.60;99.90;;;;;;4989962;28;20030;-74
2023/03/07 06:13:21;;;;;;;39.63;21.80;;;6.60;99.90;;;;;;4991833;28;20038;-76
2023/03/07 06:15:54;;;;;;;43.38;24.50;;;6.70;99.90;;;;;;4990838;28;20049;-74
2023/03/07 06:18:21;;;;;;;42.35;23.42;;;6.60;99.90;;;;;;4988389;28;20061;-76
2023/03/07 06:21:01;;;;;;;42.55;23.35;;;6.70;99.90;;;;;;4988871;28;20072;-81
2023/03/07 06:23:32;;;;;;;42.53;23.40;;;6.70;99.90;;;;;;4984031;28;20038;-75
2023/03/07 06:25:58;;;;;;;41.72;21.45;;;6.70;99.90;;;;;;4991386;28;20489;-75
2023/03/07 06:28:24;;;;;;;46.42;23.60;;;6.70;99.90;;;;;;4987351;28;20060;-75
2023/03/07 06:30:50;;;;;;;43.05;23.88;;;6.60;99.90;;;;;;4983809;28;20440;-83
2023/03/07 06:33:16;;;;;;;44.58;24.95;;;6.60;99.90;;;;;;4987544;28;20042;-81
2023/03/07 06:35:43;;;;;;;40.30;23.50;;;6.60;99.90;;;;;;4991425;28;20403;-75
2023/03/07 06:38:10;;;;;;;48.20;25.75;;;6.60;99.90;;;;;;4987948;28;20041;-76
2023/03/07 06:40:35;;;;;;;43.40;23.20;;;6.70;99.90;;;;;;4988162;28;20038;-79
2023/03/07 06:43:01;;;;;;;45.03;22.85;;;6.80;99.90;;;;;;4986125;28;20026;-77
2023/03/07 06:45:27;;;;;;;43.20;24.55;;;6.80;99.90;;;;;;4990654;28;20081;-75
2023/03/07 06:47:52;;;;;;;40.30;23.75;;;6.90;99.90;;;;;;4987398;28;20205;-76
2023/03/07 06:50:18;;;;;;;39.88;22.42;;;6.90;99.90;;;;;;4985357;28;20053;-77
2023/03/07 06:52:44;;;;;;;40.15;21.45;;;6.80;99.90;;;;;;4975344;28;20060;-78
2023/03/07 06:55:10;;;;;;;35.22;21.98;;;6.90;99.90;;;;;;4976754;28;20038;-75
2023/03/07 06:57:36;;;;;;;38.50;21.75;;;7.00;99.90;;;;;;4979610;28;20188;-76
2023/03/07 07:00:04;;;;;;;39.78;21.88;;;7.10;99.90;;;;;;4984550;28;20125;-77
2023/03/07 07:02:30;;;;;;;38.70;20.88;;;7.10;99.90;;;;;;4987362;28;20532;-76
2023/03/07 07:04:57;;;;;;;44.47;20.85;;;7.00;99.90;;;;;;4984604;28;20117;-76
2023/03/07 07:07:23;;;;;;;39.42;20.38;;;6.90;99.90;;;;;;4986170;28;20033;-74
2023/03/07 07:09:49;;;;;;;40.00;21.45;;;6.80;99.90;;;;;;4985708;28;20022;-78
2023/03/07 07:12:15;;;;;;;36.33;21.42;;;6.70;99.90;;;;;;4986018;28;20473;-74
2023/03/07 07:14:41;;;;;;;39.75;21.83;;;6.80;99.90;;;;;;4985713;28;20030;-75
2023/03/07 07:17:06;;;;;;;38.50;21.52;;;7.00;99.90;;;;;;4974610;28;20046;-76
2023/03/07 07:19:32;;;;;;;34.33;20.02;;;7.00;99.90;;;;;;4981971;28;20074;-76
2023/03/07 07:21:58;;;;;;;37.95;21.65;;;7.00;99.90;;;;;;4986004;28;20500;-75
2023/03/07 07:24:24;;;;;;;39.70;20.30;;;7.10;99.90;;;;;;4985756;28;20176;-76
2023/03/07 07:26:50;;;;;;;36.05;21.15;;;7.20;99.90;;;;;;4979014;28;20088;-75
2023/03/07 07:29:15;;;;;;;39.28;22.40;;;7.30;99.90;;;;;;4982114;28;20113;-82
2023/03/07 07:31:41;;;;;;;40.47;21.40;;;7.10;99.90;;;;;;4984380;28;20425;-80
2023/03/07 07:34:07;;;;;;;37.97;22.27;;;7.00;99.90;;;;;;4984661;28;20046;-77
2023/03/07 07:36:33;;;;;;;44.83;20.95;;;6.90;99.90;;;;;;4986945;28;20100;-78
2023/03/07 07:39:04;;;;;;;53.85;22.60;;;6.80;99.90;;;;;;4983865;28;20072;-77
2023/03/07 07:41:30;;;;;;;41.95;21.08;;;6.90;99.90;;;;;;4980252;28;20112;-78
2023/03/07 07:43:56;;;;;;;41.30;22.77;;;6.90;99.90;;;;;;4985226;28;20041;-77
2023/03/07 07:46:22;;;;;;;37.10;20.88;;;7.00;99.90;;;;;;4975528;28;20034;-81
2023/03/07 07:48:48;;;;;;;40.33;22.67;;;7.10;99.90;;;;;;4981944;28;20531;-77
2023/03/07 07:51:14;;;;;;;35.22;21.85;;;7.30;99.90;;;;;;4983928;28;20579;-78
2023/03/07 07:53:41;;;;;;;50.50;25.80;;;7.40;99.90;;;;;;4984707;28;20054;-82
2023/03/07 07:56:07;;;;;;;39.60;20.95;;;7.60;99.90;;;;;;4978120;28;20065;-77
2023/03/07 07:58:33;;;;;;;34.42;21.58;;;8.00;99.90;;;;;;4976784;28;20065;-77
2023/03/07 08:00:59;;;;;;;35.00;20.40;;;7.80;99.90;;;;;;4985237;28;20396;-76
2023/03/07 08:03:24;;;;;;;37.20;20.13;;;7.60;99.90;;;;;;4979068;28;20026;-76
2023/03/07 08:05:50;;;;;;;35.55;21.15;;;7.80;99.90;;;;;;4969629;28;20026;-78
2023/03/07 08:08:18;;;;;;;40.35;21.20;;;7.80;99.90;;;;;;4973738;28;20038;-75
2023/03/07 08:10:45;;;;;;;39.20;21.95;;;7.90;99.90;;;;;;4982384;28;20041;-75
2023/03/07 08:13:13;;;;;;;40.00;23.00;;;7.90;99.90;;;;;;4986886;28;20034;-74
2023/03/07 08:15:39;;;;;;;35.20;19.70;;;8.10;99.90;;;;;;4987022;28;20030;-71
2023/03/07 08:18:05;;;;;;;36.88;22.27;;;8.20;99.90;;;;;;4986279;28;20069;-72
2023/03/07 08:20:31;;;;;;;41.35;23.67;;;8.40;99.90;;;;;;4980556;28;20377;-75
2023/03/07 08:22:57;;;;;;;37.72;22.60;;;8.40;99.90;;;;;;4981647;28;20698;-72
2023/03/07 08:25:23;;;;;;;41.08;21.80;;;8.40;99.90;;;;;;4983866;28;20034;-71
2023/03/07 08:27:53;;;;;;;42.88;23.20;;;8.20;99.90;;;;;;4983651;28;20034;-70
2023/03/07 08:30:29;;;;;;;37.97;21.13;;;8.20;99.90;;;;;;4977746;28;20109;-70
2023/03/07 08:32:56;;;;;;;38.85;22.77;;;8.10;99.90;;;;;;4968474;28;20030;-71
2023/03/07 08:35:23;;;;;;;44.65;23.08;;;8.20;99.90;;;;;;4984579;28;20034;-72
2023/03/07 08:37:53;;;;;;;41.28;22.75;;;8.20;99.90;;;;;;4974523;28;20034;-70
2023/03/07 08:40:19;;;;;;;41.00;22.67;;;8.30;99.90;;;;;;4982006;28;20595;-70
2023/03/07 08:42:45;;;;;;;41.45;23.10;;;8.40;99.90;;;;;;4989027;28;20117;-71
2023/03/07 08:45:11;;;;;;;36.45;22.33;;;8.50;99.90;;;;;;4989702;28;20129;-71
2023/03/07 08:47:37;;;;;;;38.45;22.33;;;8.60;99.90;;;;;;4990342;28;21027;-71
2023/03/07 08:50:03;;;;;;;33.95;21.38;;;8.50;99.90;;;;;;4990128;28;20030;-71
2023/03/07 08:52:29;;;;;;;39.42;24.00;;;8.60;99.90;;;;;;4988876;28;20037;-71
2023/03/07 08:54:54;;;;;;;37.53;20.75;;;8.90;99.90;;;;;;4981978;28;20039;-71
2023/03/07 08:57:20;;;;;;;35.92;21.45;;;8.80;99.90;;;;;;4988212;28;20030;-73
2023/03/07 08:59:46;;;;;;;40.38;20.77;;;8.70;99.90;;;;;;4979350;28;20051;-72
2023/03/07 09:02:12;;;;;;;37.85;23.08;;;8.90;99.90;;;;;;4971986;28;20105;-72
2023/03/07 09:04:37;;;;;;;45.95;25.48;;;8.90;99.90;;;;;;4988530;28;20051;-72
2023/03/07 09:07:03;;;;;;;43.95;22.33;;;9.00;99.90;;;;;;4991387;28;20046;-71
2023/03/07 09:09:30;;;;;;;35.40;21.67;;;9.30;99.90;;;;;;4991127;28;20106;-72
2023/03/07 09:11:57;;;;;;;36.85;22.70;;;9.30;99.90;;;;;;4990504;28;20018;-72
2023/03/07 09:14:23;;;;;;;42.75;23.00;;;9.50;99.60;;;;;;4990380;28;20512;-72
2023/03/07 09:16:48;;;;;;;41.38;21.98;;;9.60;99.90;;;;;;4986897;28;20039;-70
2023/03/07 09:19:14;;;;;;;40.80;21.60;;;9.80;99.50;;;;;;4991118;28;20042;-72
2023/03/07 09:21:40;;;;;;;39.40;24.45;;;9.80;99.00;;;;;;4990719;28;20448;-72
2023/03/07 09:24:06;;;;;;;38.55;21.67;;;9.50;99.00;;;;;;4975609;28;20478;-72
2023/03/07 09:26:32;;;;;;;42.33;22.95;;;9.50;99.10;;;;;;4988587;28;20077;-72
2023/03/07 09:28:58;;;;;;;40.33;22.88;;;9.60;99.40;;;;;;4987025;28;20030;-72
2023/03/07 09:31:24;;;;;;;43.35;23.92;;;9.50;98.90;;;;;;4985876;28;20022;-72
2023/03/07 09:33:50;;;;;;;37.50;24.10;;;9.50;99.40;;;;;;4989422;28;20050;-72
2023/03/07 09:36:16;;;;;;;42.28;22.45;;;9.60;99.20;;;;;;4986845;28;20460;-73
2023/03/07 09:38:43;;;;;;;45.55;22.92;;;9.60;98.70;;;;;;4987468;28;20038;-73
2023/03/07 09:41:32;;;;;;;41.97;25.08;;;9.60;99.10;;;;;;4982449;28;20417;-73
2023/03/07 09:44:09;;;;;;;40.13;22.83;;;9.80;98.90;;;;;;4989478;28;20452;-72
2023/03/07 09:47:23;;;;;;;41.85;22.88;;;10.00;98.80;;;;;;4980161;28;20022;-72
2023/03/07 09:49:50;;;;;;;36.17;22.33;;;9.70;98.50;;;;;;4985370;28;20027;-73
2023/03/07 09:52:18;;;;;;;43.95;24.23;;;9.90;98.40;;;;;;4985735;28;20143;-72
2023/03/07 09:54:58;;;;;;;35.45;22.30;;;9.80;98.40;;;;;;4989929;28;21351;-72
2023/03/07 09:57:31;;;;;;;38.65;23.73;;;9.80;98.60;;;;;;4990881;28;20053;-72
2023/03/07 10:00:37;;;;;;;38.60;23.80;;;9.80;98.80;;;;;;4990243;28;20497;-72
2023/03/07 10:03:08;;;;;;;;;;;9.80;98.70;;;;;;4978457;28;20039;-72
2023/03/07 10:05:40;;;;;;;40.17;22.73;;;10.00;98.70;;;;;;4971122;28;19933;-72
2023/03/07 10:08:14;;;;;;;44.35;24.00;;;10.10;98.70;;;;;;4971096;28;20027;-72
2023/03/07 10:10:53;;;;;;;40.60;23.37;;;10.20;98.60;;;;;;4972557;28;20046;-72
2023/03/07 10:13:48;;;;;;;39.60;23.70;;;10.10;98.40;;;;;;4990178;28;20265;-72
2023/03/07 10:16:31;;;;;;;41.83;23.10;;;10.30;98.10;;;;;;4990156;28;20030;-72
2023/03/07 10:18:57;;;;;;;42.83;24.60;;;10.30;98.00;;;;;;4987962;28;20496;-72
2023/03/07 10:21:56;;;;;;;51.22;24.95;;;10.40;98.30;;;;;;4988981;28;20041;-72
2023/03/07 10:24:38;;;;;;;42.45;24.80;;;10.20;98.00;;;;;;4987164;28;20034;-72
2023/03/07 10:27:05;;;;;;;35.72;22.73;;;10.20;97.90;;;;;;4970853;28;20087;-72
2023/03/07 10:29:52;;;;;;;39.15;23.88;;;10.40;97.70;;;;;;4984171;28;20081;-72
2023/03/07 10:32:30;;;;;;;41.75;24.88;;;10.60;97.70;;;;;;4988917;28;20125;-72
2023/03/07 10:35:11;;;;;;;48.92;25.50;;;10.70;97.60;;;;;;4989888;28;20030;-72
2023/03/07 10:38:10;;;;;;;39.05;23.60;;;10.90;97.40;;;;;;4988869;28;20038;-72
2023/03/07 10:40:45;;;;;;;45.28;25.45;;;10.90;97.10;;;;;;4981412;28;20050;-73
2023/03/07 10:43:26;;;;;;;41.72;23.85;;;11.10;97.70;;;;;;4987541;28;20400;-72
2023/03/07 10:46:06;;;;;;;36.60;23.92;;;11.00;97.30;;;;;;4988527;28;20026;-72
2023/03/07 10:48:36;;;;;;;41.30;24.70;;;10.70;97.10;;;;;;4984157;28;20034;-72
2023/03/07 10:51:19;;;;;;;40.47;23.20;;;11.00;97.10;;;;;;4987791;28;20034;-72
2023/03/07 10:53:46;;;;;;;45.67;24.30;;;11.30;96.90;;;;;;4984645;28;20030;-72
2023/03/07 10:56:17;;;;;;;37.65;23.42;;;11.40;96.80;;;;;;4985104;28;20039;-72
2023/03/07 10:59:06;;;;;;;36.38;24.75;;;11.30;96.60;;;;;;4986534;28;20065;-72
2023/03/07 11:01:32;;;;;;;45.17;24.55;;;11.10;96.60;;;;;;4987324;28;20026;-72
2023/03/07 11:04:07;;;;;;;41.78;26.00;;;11.10;96.70;;;;;;4988646;28;20122;-72
2023/03/07 11:06:38;;;;;;;43.85;25.13;;;11.00;96.80;;;;;;4987807;28;20042;-72
2023/03/07 11:09:26;;;;;;;46.45;25.20;;;11.00;96.70;;;;;;4987539;28;20108;-72
2023/03/07 11:11:52;;;;;;;47.72;27.80;;;10.90;96.70;;;;;;4985003;28;20042;-72
2023/03/07 11:14:20;;;;;;;165.15;114.85;;;11.00;97.10;;;;;;4985534;28;20037;-72
2023/03/07 11:16:52;;;;;;;40.85;26.48;;;11.10;96.90;;;;;;4988029;28;20026;-72
2023/03/07 11:19:37;;;;;;;47.05;25.80;;;11.00;97.20;;;;;;4987802;28;20046;-72
2023/03/07 11:22:18;;;;;;;45.25;28.33;;;11.10;97.00;;;;;;4986798;28;20041;-72
2023/03/07 11:25:13;;;;;;;42.10;25.00;;;11.30;96.60;;;;;;4983149;28;20532;-72
2023/03/07 11:27:54;;;;;;;43.25;25.13;;;11.20;96.30;;;;;;4981073;28;20516;-72
2023/03/07 11:30:29;;;;;;;42.85;25.30;;;11.10;96.40;;;;;;4973940;28;20350;-72
2023/03/07 11:33:01;;;;;;;36.90;23.40;;;11.20;96.30;;;;;;4984212;28;20026;-71
2023/03/07 11:35:54;;;;;;;40.42;24.02;;;11.40;96.60;;;;;;4988508;28;20444;-72
2023/03/07 11:38:44;;;;;;;37.70;23.15;;;11.50;96.10;;;;;;4983203;28;20030;-71
2023/03/07 11:41:19;;;;;;;43.70;24.20;;;11.50;96.20;;;;;;4988327;28;20137;-71
2023/03/07 11:43:58;;;;;;;42.85;24.52;;;11.80;96.30;;;;;;4987873;28;20042;-72
2023/03/07 11:46:40;;;;;;;39.00;22.25;;;12.20;95.70;;;;;;4977169;28;20066;-71
2023/03/07 11:49:38;;;;;;;39.08;23.35;;;12.40;95.70;;;;;;4981952;28;20072;-72
2023/03/07 11:52:35;;;;;;;36.67;22.83;;;12.50;95.10;;;;;;4988580;28;20035;-72
2023/03/07 11:55:31;;;;;;;34.65;22.08;;;12.50;95.40;;;;;;4986122;28;20425;-72
2023/03/07 11:58:11;;;;;;;37.97;21.92;;;12.40;94.80;;;;;;4989004;28;20453;-72
2023/03/07 12:01:05;;;;;;;38.58;21.63;;;12.40;94.70;;;;;;4988018;28;20485;-72
2023/03/07 12:03:45;;;;;;;36.80;20.55;;;12.60;95.00;;;;;;4968875;28;20062;-72
2023/03/07 12:06:17;;;;;;;36.92;22.17;;;12.70;94.80;;;;;;4969111;28;20039;-72
2023/03/07 12:08:48;;;;;;;35.42;22.23;;;13.30;95.10;;;;;;4987761;28;20030;-72
2023/03/07 12:11:37;;;;;;;35.53;22.83;;;13.10;94.60;;;;;;4988183;28;20536;-72
2023/03/07 12:14:15;;;;;;;44.20;21.15;;;13.00;94.20;;;;;;4988947;28;20137;-72
2023/03/07 12:17:04;;;;;;;39.25;21.58;;;12.40;94.50;;;;;;4990894;28;20346;-71
2023/03/07 12:19:54;;;;;;;33.55;20.35;;;12.30;94.70;;;;;;4993180;28;20086;-72
2023/03/07 12:22:27;;;;;;;35.53;21.58;;;12.30;95.20;;;;;;5008615;28;20034;-72
2023/03/07 12:24:56;;;;;;;37.47;21.23;;;12.30;94.80;;;;;;4990467;28;20034;-72
2023/03/07 12:27:36;;;;;;;33.92;21.33;;;12.30;94.60;;;;;;4990013;28;20035;-72
2023/03/07 12:30:14;;;;;;;33.08;21.67;;;12.40;94.60;;;;;;4990021;28;20026;-72
2023/03/07 12:32:40;;;;;;;32.30;20.10;;;12.60;94.80;;;;;;4984320;28;20042;-72
2023/03/07 12:35:20;;;;;;;35.58;20.48;;;12.60;95.00;;;;;;4991364;28;20042;-72
2023/03/07 12:37:57;;;;;;;35.25;19.30;;;12.60;94.70;;;;;;4990924;28;20030;-72
2023/03/07 12:40:32;;;;;;;36.78;20.65;;;12.70;94.30;;;;;;4992263;28;20065;-72
2023/03/07 12:43:21;;;;;;;34.22;21.35;;;12.40;94.40;;;;;;4991376;28;20066;-72
2023/03/07 12:46:06;;;;;;;39.45;21.80;;;12.30;94.70;;;;;;4989495;28;20534;-72
2023/03/07 12:48:57;;;;;;;39.30;20.15;;;12.20;94.90;;;;;;4989669;28;20052;-72